sensor_id;sensor_type;location;lat;lon;timestamp;P1;durP1;ratioP1;P2;durP2;ratioP2
23115;SDS011;11727;52.134;5.052;2023-05-07T00:01:16;30.40;;;15.43;;
23115;SDS011;11727;52.134;5.052;2023-05-07T00:03:41;25.70;;;13.98;;
23115;SDS011;11727;52.134;5.052;2023-05-07T00:06:07;28.35;;;14.63;;
23115;SDS011;11727;52.134;5.052;2023-05-07T00:08:33;25.33;;;13.52;;
23115;SDS011;11727;52.134;5.052;2023-05-07T00:10:58;23.73;;;14.10;;
23115;SDS011;11727;52.134;5.052;2023-05-07T00:13:24;23.63;;;13.88;;
23115;SDS011;11727;52.134;5.052;2023-05-07T00:15:49;28.42;;;13.90;;
23115;SDS011;11727;52.134;5.052;2023-05-07T00:18:15;23.23;;;12.88;;
23115;SDS011;11727;52.134;5.052;2023-05-07T00:20:41;23.98;;;13.38;;
23115;SDS011;11727;52.134;5.052;2023-05-07T00:23:06;22.02;;;13.05;;
23115;SDS011;11727;52.134;5.052;2023-05-07T00:25:32;29.05;;;13.40;;
23115;SDS011;11727;52.134;5.052;2023-05-07T00:27:58;25.77;;;14.48;;
23115;SDS011;11727;52.134;5.052;2023-05-07T00:30:28;22.13;;;12.95;;
23115;SDS011;11727;52.134;5.052;2023-05-07T00:32:54;21.17;;;12.10;;
23115;SDS011;11727;52.134;5.052;2023-05-07T00:35:20;24.02;;;13.73;;
23115;SDS011;11727;52.134;5.052;2023-05-07T00:37:45;24.98;;;13.70;;
23115;SDS011;11727;52.134;5.052;2023-05-07T00:40:11;23.90;;;13.18;;
23115;SDS011;11727;52.134;5.052;2023-05-07T00:42:36;22.55;;;13.40;;
23115;SDS011;11727;52.134;5.052;2023-05-07T00:45:02;20.02;;;11.88;;
23115;SDS011;11727;52.134;5.052;2023-05-07T00:47:28;21.13;;;11.90;;
23115;SDS011;11727;52.134;5.052;2023-05-07T00:49:54;25.98;;;12.98;;
23115;SDS011;11727;52.134;5.052;2023-05-07T00:52:20;24.50;;;13.07;;
23115;SDS011;11727;52.134;5.052;2023-05-07T00:54:50;17.75;;;10.98;;
23115;SDS011;11727;52.134;5.052;2023-05-07T00:57:15;22.05;;;12.40;;
23115;SDS011;11727;52.134;5.052;2023-05-07T00:59:41;15.10;;;9.73;;
23115;SDS011;11727;52.134;5.052;2023-05-07T01:02:07;17.20;;;10.07;;
23115;SDS011;11727;52.134;5.052;2023-05-07T01:04:33;14.18;;;9.23;;
23115;SDS011;11727;52.134;5.052;2023-05-07T01:06:58;18.20;;;10.23;;
23115;SDS011;11727;52.134;5.052;2023-05-07T01:09:25;18.73;;;10.23;;
23115;SDS011;11727;52.134;5.052;2023-05-07T01:11:52;16.02;;;9.30;;
23115;SDS011;11727;52.134;5.052;2023-05-07T01:14:20;15.95;;;9.50;;
23115;SDS011;11727;52.134;5.052;2023-05-07T01:16:46;11.82;;;8.48;;
23115;SDS011;11727;52.134;5.052;2023-05-07T01:25:59;14.70;;;7.97;;
23115;SDS011;11727;52.134;5.052;2023-05-07T01:28:24;16.40;;;8.65;;
23115;SDS011;11727;52.134;5.052;2023-05-07T01:30:52;11.75;;;7.95;;
23115;SDS011;11727;52.134;5.052;2023-05-07T01:33:21;14.27;;;8.05;;
23115;SDS011;11727;52.134;5.052;2023-05-07T01:35:48;20.15;;;8.25;;
23115;SDS011;11727;52.134;5.052;2023-05-07T01:38:16;11.82;;;7.63;;
23115;SDS011;11727;52.134;5.052;2023-05-07T01:43:10;14.32;;;7.50;;
23115;SDS011;11727;52.134;5.052;2023-05-07T01:45:36;10.65;;;6.65;;
23115;SDS011;11727;52.134;5.052;2023-05-07T01:48:02;12.55;;;7.13;;
23115;SDS011;11727;52.134;5.052;2023-05-07T01:50:29;11.73;;;6.90;;
23115;SDS011;11727;52.134;5.052;2023-05-07T01:52:55;11.10;;;6.28;;
23115;SDS011;11727;52.134;5.052;2023-05-07T01:55:21;10.55;;;6.13;;
23115;SDS011;11727;52.134;5.052;2023-05-07T01:57:47;9.38;;;6.15;;
23115;SDS011;11727;52.134;5.052;2023-05-07T02:00:13;11.52;;;6.25;;
23115;SDS011;11727;52.134;5.052;2023-05-07T02:02:39;14.52;;;6.47;;
23115;SDS011;11727;52.134;5.052;2023-05-07T02:05:04;11.38;;;6.10;;
23115;SDS011;11727;52.134;5.052;2023-05-07T02:07:30;13.93;;;6.90;;
23115;SDS011;11727;52.134;5.052;2023-05-07T02:09:56;11.38;;;6.60;;
23115;SDS011;11727;52.134;5.052;2023-05-07T02:12:22;12.73;;;6.53;;
23115;SDS011;11727;52.134;5.052;2023-05-07T02:14:48;7.53;;;5.22;;
23115;SDS011;11727;52.134;5.052;2023-05-07T02:17:14;14.18;;;6.82;;
23115;SDS011;11727;52.134;5.052;2023-05-07T02:19:39;11.85;;;5.25;;
23115;SDS011;11727;52.134;5.052;2023-05-07T02:22:05;10.25;;;6.05;;
23115;SDS011;11727;52.134;5.052;2023-05-07T02:24:31;11.82;;;6.70;;
23115;SDS011;11727;52.134;5.052;2023-05-07T02:26:57;10.52;;;5.60;;
23115;SDS011;11727;52.134;5.052;2023-05-07T02:29:22;8.68;;;5.88;;
23115;SDS011;11727;52.134;5.052;2023-05-07T02:31:48;10.40;;;5.53;;
23115;SDS011;11727;52.134;5.052;2023-05-07T02:34:18;11.50;;;6.43;;
23115;SDS011;11727;52.134;5.052;2023-05-07T02:36:43;12.20;;;6.30;;
23115;SDS011;11727;52.134;5.052;2023-05-07T02:39:09;9.48;;;5.82;;
23115;SDS011;11727;52.134;5.052;2023-05-07T02:41:34;7.47;;;4.70;;
23115;SDS011;11727;52.134;5.052;2023-05-07T02:44:00;11.85;;;5.80;;
23115;SDS011;11727;52.134;5.052;2023-05-07T02:46:26;9.27;;;6.05;;
23115;SDS011;11727;52.134;5.052;2023-05-07T02:48:54;8.57;;;5.40;;
23115;SDS011;11727;52.134;5.052;2023-05-07T02:53:52;11.18;;;5.72;;
23115;SDS011;11727;52.134;5.052;2023-05-07T02:56:31;8.20;;;5.80;;
23115;SDS011;11727;52.134;5.052;2023-05-07T03:02:21;11.88;;;6.28;;
23115;SDS011;11727;52.134;5.052;2023-05-07T03:08:24;9.27;;;6.50;;
23115;SDS011;11727;52.134;5.052;2023-05-07T03:10:50;9.52;;;5.95;;
23115;SDS011;11727;52.134;5.052;2023-05-07T03:13:16;10.02;;;5.90;;
23115;SDS011;11727;52.134;5.052;2023-05-07T03:15:42;12.30;;;6.88;;
23115;SDS011;11727;52.134;5.052;2023-05-07T03:18:07;9.43;;;6.13;;
23115;SDS011;11727;52.134;5.052;2023-05-07T03:20:33;11.13;;;6.38;;
23115;SDS011;11727;52.134;5.052;2023-05-07T03:46:17;13.35;;;7.28;;
23115;SDS011;11727;52.134;5.052;2023-05-07T03:48:43;13.60;;;6.88;;
23115;SDS011;11727;52.134;5.052;2023-05-07T03:51:09;12.07;;;6.63;;
23115;SDS011;11727;52.134;5.052;2023-05-07T03:53:35;11.90;;;7.45;;
23115;SDS011;11727;52.134;5.052;2023-05-07T03:56:04;13.25;;;7.78;;
23115;SDS011;11727;52.134;5.052;2023-05-07T04:03:11;11.10;;;7.32;;
23115;SDS011;11727;52.134;5.052;2023-05-07T04:06:53;12.65;;;7.10;;
23115;SDS011;11727;52.134;5.052;2023-05-07T04:10:24;17.10;;;7.55;;
23115;SDS011;11727;52.134;5.052;2023-05-07T04:22:27;9.40;;;6.22;;
23115;SDS011;11727;52.134;5.052;2023-05-07T04:24:52;10.55;;;6.55;;
23115;SDS011;11727;52.134;5.052;2023-05-07T04:42:41;10.65;;;7.38;;
23115;SDS011;11727;52.134;5.052;2023-05-07T04:45:07;9.77;;;6.78;;
23115;SDS011;11727;52.134;5.052;2023-05-07T04:47:33;11.82;;;7.18;;
23115;SDS011;11727;52.134;5.052;2023-05-07T04:49:59;12.93;;;7.75;;
23115;SDS011;11727;52.134;5.052;2023-05-07T04:55:36;16.75;;;7.88;;
23115;SDS011;11727;52.134;5.052;2023-05-07T04:58:01;11.73;;;7.88;;
23115;SDS011;11727;52.134;5.052;2023-05-07T05:00:27;13.23;;;8.30;;
23115;SDS011;11727;52.134;5.052;2023-05-07T05:02:53;18.10;;;7.88;;
23115;SDS011;11727;52.134;5.052;2023-05-07T05:05:19;14.30;;;8.82;;
23115;SDS011;11727;52.134;5.052;2023-05-07T05:07:45;17.33;;;8.50;;
23115;SDS011;11727;52.134;5.052;2023-05-07T05:10:11;14.93;;;8.77;;
23115;SDS011;11727;52.134;5.052;2023-05-07T05:12:36;15.00;;;9.05;;
23115;SDS011;11727;52.134;5.052;2023-05-07T05:15:18;17.02;;;9.98;;
23115;SDS011;11727;52.134;5.052;2023-05-07T05:18:12;17.27;;;9.60;;
23115;SDS011;11727;52.134;5.052;2023-05-07T05:24:05;17.60;;;10.68;;
23115;SDS011;11727;52.134;5.052;2023-05-07T05:36:00;15.85;;;9.88;;
23115;SDS011;11727;52.134;5.052;2023-05-07T05:38:29;18.60;;;10.77;;
23115;SDS011;11727;52.134;5.052;2023-05-07T05:40:55;17.30;;;11.18;;
23115;SDS011;11727;52.134;5.052;2023-05-07T05:43:20;19.20;;;10.40;;
23115;SDS011;11727;52.134;5.052;2023-05-07T06:20:26;19.08;;;10.43;;
23115;SDS011;11727;52.134;5.052;2023-05-07T06:22:58;16.52;;;10.48;;
23115;SDS011;11727;52.134;5.052;2023-05-07T06:25:26;16.25;;;10.13;;
23115;SDS011;11727;52.134;5.052;2023-05-07T06:27:54;16.30;;;10.10;;
23115;SDS011;11727;52.134;5.052;2023-05-07T06:30:20;18.98;;;10.20;;
23115;SDS011;11727;52.134;5.052;2023-05-07T06:32:45;17.77;;;10.77;;
23115;SDS011;11727;52.134;5.052;2023-05-07T06:35:11;21.30;;;11.50;;
23115;SDS011;11727;52.134;5.052;2023-05-07T06:37:37;18.85;;;10.35;;
23115;SDS011;11727;52.134;5.052;2023-05-07T06:40:07;17.02;;;10.15;;
23115;SDS011;11727;52.134;5.052;2023-05-07T06:42:35;16.10;;;9.98;;
23115;SDS011;11727;52.134;5.052;2023-05-07T06:45:01;16.73;;;10.57;;
23115;SDS011;11727;52.134;5.052;2023-05-07T06:47:27;21.25;;;10.02;;
23115;SDS011;11727;52.134;5.052;2023-05-07T06:49:54;19.95;;;11.15;;
23115;SDS011;11727;52.134;5.052;2023-05-07T06:52:20;17.95;;;10.70;;
23115;SDS011;11727;52.134;5.052;2023-05-07T06:54:45;17.83;;;10.82;;
23115;SDS011;11727;52.134;5.052;2023-05-07T06:57:11;19.60;;;10.68;;
23115;SDS011;11727;52.134;5.052;2023-05-07T06:59:36;17.42;;;10.43;;
23115;SDS011;11727;52.134;5.052;2023-05-07T07:02:02;17.60;;;10.45;;
23115;SDS011;11727;52.134;5.052;2023-05-07T07:04:28;17.50;;;10.18;;
23115;SDS011;11727;52.134;5.052;2023-05-07T07:06:53;21.80;;;11.88;;
23115;SDS011;11727;52.134;5.052;2023-05-07T07:09:19;20.35;;;11.07;;
23115;SDS011;11727;52.134;5.052;2023-05-07T07:11:44;19.42;;;11.30;;
23115;SDS011;11727;52.134;5.052;2023-05-07T07:14:10;19.98;;;10.38;;
23115;SDS011;11727;52.134;5.052;2023-05-07T07:16:36;22.60;;;11.73;;
23115;SDS011;11727;52.134;5.052;2023-05-07T07:19:01;21.70;;;11.95;;
23115;SDS011;11727;52.134;5.052;2023-05-07T07:21:27;19.52;;;10.70;;
23115;SDS011;11727;52.134;5.052;2023-05-07T07:23:52;18.55;;;11.30;;
23115;SDS011;11727;52.134;5.052;2023-05-07T07:26:18;21.77;;;11.63;;
23115;SDS011;11727;52.134;5.052;2023-05-07T07:28:45;24.40;;;12.02;;
23115;SDS011;11727;52.134;5.052;2023-05-07T07:31:11;18.47;;;11.57;;
23115;SDS011;11727;52.134;5.052;2023-05-07T07:33:37;16.80;;;11.05;;
23115;SDS011;11727;52.134;5.052;2023-05-07T07:36:02;19.60;;;11.40;;
23115;SDS011;11727;52.134;5.052;2023-05-07T07:38:28;18.58;;;10.80;;
23115;SDS011;11727;52.134;5.052;2023-05-07T07:40:54;19.60;;;11.25;;
23115;SDS011;11727;52.134;5.052;2023-05-07T07:43:20;18.73;;;11.93;;
23115;SDS011;11727;52.134;5.052;2023-05-07T07:45:45;19.10;;;11.10;;
23115;SDS011;11727;52.134;5.052;2023-05-07T07:48:11;21.60;;;11.27;;
23115;SDS011;11727;52.134;5.052;2023-05-07T07:50:36;21.42;;;12.02;;
23115;SDS011;11727;52.134;5.052;2023-05-07T07:53:02;15.45;;;9.60;;
23115;SDS011;11727;52.134;5.052;2023-05-07T07:55:28;20.27;;;10.52;;
23115;SDS011;11727;52.134;5.052;2023-05-07T07:57:54;19.17;;;10.50;;
23115;SDS011;11727;52.134;5.052;2023-05-07T08:00:19;16.42;;;10.77;;
23115;SDS011;11727;52.134;5.052;2023-05-07T08:02:45;18.20;;;10.75;;
23115;SDS011;11727;52.134;5.052;2023-05-07T08:05:11;16.83;;;10.80;;
23115;SDS011;11727;52.134;5.052;2023-05-07T08:07:37;18.42;;;10.13;;
23115;SDS011;11727;52.134;5.052;2023-05-07T08:10:02;17.00;;;10.80;;
23115;SDS011;11727;52.134;5.052;2023-05-07T08:12:29;18.35;;;10.27;;
23115;SDS011;11727;52.134;5.052;2023-05-07T08:14:54;15.73;;;9.45;;
23115;SDS011;11727;52.134;5.052;2023-05-07T08:17:20;16.15;;;9.95;;
23115;SDS011;11727;52.134;5.052;2023-05-07T08:19:47;17.92;;;10.02;;
23115;SDS011;11727;52.134;5.052;2023-05-07T08:22:13;18.90;;;10.52;;
23115;SDS011;11727;52.134;5.052;2023-05-07T08:24:39;19.40;;;11.32;;
23115;SDS011;11727;52.134;5.052;2023-05-07T08:27:05;14.73;;;9.90;;
23115;SDS011;11727;52.134;5.052;2023-05-07T08:29:30;18.15;;;10.40;;
23115;SDS011;11727;52.134;5.052;2023-05-07T08:31:56;17.75;;;10.65;;
23115;SDS011;11727;52.134;5.052;2023-05-07T08:34:22;16.95;;;8.88;;
23115;SDS011;11727;52.134;5.052;2023-05-07T08:36:47;17.00;;;9.20;;
23115;SDS011;11727;52.134;5.052;2023-05-07T08:39:13;13.63;;;8.00;;
23115;SDS011;11727;52.134;5.052;2023-05-07T08:41:45;14.80;;;8.40;;
23115;SDS011;11727;52.134;5.052;2023-05-07T08:44:13;13.13;;;7.38;;
23115;SDS011;11727;52.134;5.052;2023-05-07T08:46:40;12.70;;;8.10;;
23115;SDS011;11727;52.134;5.052;2023-05-07T08:49:07;10.87;;;7.00;;
23115;SDS011;11727;52.134;5.052;2023-05-07T08:51:33;13.00;;;6.97;;
23115;SDS011;11727;52.134;5.052;2023-05-07T08:53:58;11.60;;;6.95;;
23115;SDS011;11727;52.134;5.052;2023-05-07T08:56:26;11.43;;;6.68;;
23115;SDS011;11727;52.134;5.052;2023-05-07T08:58:52;10.68;;;6.60;;
23115;SDS011;11727;52.134;5.052;2023-05-07T09:01:21;10.48;;;5.78;;
23115;SDS011;11727;52.134;5.052;2023-05-07T09:03:47;10.68;;;5.93;;
23115;SDS011;11727;52.134;5.052;2023-05-07T09:06:13;9.73;;;5.70;;
23115;SDS011;11727;52.134;5.052;2023-05-07T09:08:40;10.17;;;6.63;;
23115;SDS011;11727;52.134;5.052;2023-05-07T09:11:05;8.90;;;5.75;;
23115;SDS011;11727;52.134;5.052;2023-05-07T09:13:31;9.23;;;5.82;;
23115;SDS011;11727;52.134;5.052;2023-05-07T09:15:57;8.57;;;5.60;;
23115;SDS011;11727;52.134;5.052;2023-05-07T09:18:25;12.68;;;5.80;;
23115;SDS011;11727;52.134;5.052;2023-05-07T09:20:51;11.23;;;5.47;;
23115;SDS011;11727;52.134;5.052;2023-05-07T09:23:17;9.60;;;5.35;;
23115;SDS011;11727;52.134;5.052;2023-05-07T09:25:43;7.88;;;5.00;;
23115;SDS011;11727;52.134;5.052;2023-05-07T09:28:09;9.48;;;4.22;;
23115;SDS011;11727;52.134;5.052;2023-05-07T09:30:36;10.90;;;5.50;;
23115;SDS011;11727;52.134;5.052;2023-05-07T09:33:02;7.55;;;4.95;;
23115;SDS011;11727;52.134;5.052;2023-05-07T09:35:29;10.80;;;4.95;;
23115;SDS011;11727;52.134;5.052;2023-05-07T09:37:56;10.60;;;5.75;;
23115;SDS011;11727;52.134;5.052;2023-05-07T09:40:25;6.32;;;4.15;;
23115;SDS011;11727;52.134;5.052;2023-05-07T09:42:52;9.57;;;5.20;;
23115;SDS011;11727;52.134;5.052;2023-05-07T09:45:24;8.73;;;5.18;;
23115;SDS011;11727;52.134;5.052;2023-05-07T09:47:53;8.20;;;5.25;;
23115;SDS011;11727;52.134;5.052;2023-05-07T09:50:21;8.07;;;4.03;;
23115;SDS011;11727;52.134;5.052;2023-05-07T09:52:54;8.35;;;4.45;;
23115;SDS011;11727;52.134;5.052;2023-05-07T09:55:21;4.90;;;3.03;;
23115;SDS011;11727;52.134;5.052;2023-05-07T09:57:51;7.45;;;3.75;;
23115;SDS011;11727;52.134;5.052;2023-05-07T10:00:21;6.15;;;3.58;;
23115;SDS011;11727;52.134;5.052;2023-05-07T10:02:48;10.32;;;4.18;;
23115;SDS011;11727;52.134;5.052;2023-05-07T10:05:17;10.32;;;4.30;;
23115;SDS011;11727;52.134;5.052;2023-05-07T10:07:45;6.22;;;3.80;;
23115;SDS011;11727;52.134;5.052;2023-05-07T10:10:11;5.13;;;3.63;;
23115;SDS011;11727;52.134;5.052;2023-05-07T10:12:38;8.10;;;3.90;;
23115;SDS011;11727;52.134;5.052;2023-05-07T10:15:08;5.97;;;3.53;;
23115;SDS011;11727;52.134;5.052;2023-05-07T10:17:38;7.70;;;3.28;;
23115;SDS011;11727;52.134;5.052;2023-05-07T10:20:05;6.90;;;3.47;;
23115;SDS011;11727;52.134;5.052;2023-05-07T10:22:33;6.53;;;3.92;;
23115;SDS011;11727;52.134;5.052;2023-05-07T10:25:06;7.78;;;3.47;;
23115;SDS011;11727;52.134;5.052;2023-05-07T10:27:46;8.45;;;4.70;;
23115;SDS011;11727;52.134;5.052;2023-05-07T10:30:26;6.38;;;2.97;;
23115;SDS011;11727;52.134;5.052;2023-05-07T10:33:04;10.48;;;3.17;;
23115;SDS011;11727;52.134;5.052;2023-05-07T10:35:36;7.90;;;3.25;;
23115;SDS011;11727;52.134;5.052;2023-05-07T10:38:05;3.17;;;2.35;;
23115;SDS011;11727;52.134;5.052;2023-05-07T10:40:32;5.85;;;2.58;;
23115;SDS011;11727;52.134;5.052;2023-05-07T10:43:01;5.43;;;2.63;;
23115;SDS011;11727;52.134;5.052;2023-05-07T10:45:30;6.85;;;3.50;;
23115;SDS011;11727;52.134;5.052;2023-05-07T10:48:17;8.07;;;2.67;;
23115;SDS011;11727;52.134;5.052;2023-05-07T10:50:43;12.23;;;2.53;;
23115;SDS011;11727;52.134;5.052;2023-05-07T10:55:43;3.95;;;2.53;;
23115;SDS011;11727;52.134;5.052;2023-05-07T11:00:47;6.65;;;3.20;;
23115;SDS011;11727;52.134;5.052;2023-05-07T11:03:14;4.00;;;2.67;;
23115;SDS011;11727;52.134;5.052;2023-05-07T11:05:40;5.13;;;3.05;;
23115;SDS011;11727;52.134;5.052;2023-05-07T11:08:07;6.60;;;2.40;;
23115;SDS011;11727;52.134;5.052;2023-05-07T11:16:19;3.90;;;1.90;;
23115;SDS011;11727;52.134;5.052;2023-05-07T11:18:55;5.88;;;2.17;;
23115;SDS011;11727;52.134;5.052;2023-05-07T11:21:37;4.30;;;1.73;;
23115;SDS011;11727;52.134;5.052;2023-05-07T11:24:05;4.38;;;1.88;;
23115;SDS011;11727;52.134;5.052;2023-05-07T11:26:42;3.95;;;1.50;;
23115;SDS011;11727;52.134;5.052;2023-05-07T11:29:20;2.78;;;1.60;;
23115;SDS011;11727;52.134;5.052;2023-05-07T11:31:54;3.47;;;1.13;;
23115;SDS011;11727;52.134;5.052;2023-05-07T11:34:21;7.60;;;1.40;;
23115;SDS011;11727;52.134;5.052;2023-05-07T11:36:50;2.20;;;1.10;;
23115;SDS011;11727;52.134;5.052;2023-05-07T11:39:23;5.90;;;0.98;;
23115;SDS011;11727;52.134;5.052;2023-05-07T11:41:50;3.78;;;1.35;;
23115;SDS011;11727;52.134;5.052;2023-05-07T11:44:15;4.80;;;1.30;;
23115;SDS011;11727;52.134;5.052;2023-05-07T11:46:42;4.32;;;1.20;;
23115;SDS011;11727;52.134;5.052;2023-05-07T11:49:10;5.47;;;1.73;;
23115;SDS011;11727;52.134;5.052;2023-05-07T11:51:36;5.50;;;1.42;;
23115;SDS011;11727;52.134;5.052;2023-05-07T11:54:04;5.78;;;1.70;;
23115;SDS011;11727;52.134;5.052;2023-05-07T11:56:34;4.53;;;1.70;;
23115;SDS011;11727;52.134;5.052;2023-05-07T11:59:00;5.78;;;1.60;;
23115;SDS011;11727;52.134;5.052;2023-05-07T12:01:26;2.53;;;1.50;;
23115;SDS011;11727;52.134;5.052;2023-05-07T12:03:52;3.47;;;1.73;;
23115;SDS011;11727;52.134;5.052;2023-05-07T12:06:17;4.15;;;1.70;;
23115;SDS011;11727;52.134;5.052;2023-05-07T12:08:44;5.75;;;2.10;;
23115;SDS011;11727;52.134;5.052;2023-05-07T12:11:13;4.15;;;1.63;;
23115;SDS011;11727;52.134;5.052;2023-05-07T12:13:47;7.47;;;2.33;;
23115;SDS011;11727;52.134;5.052;2023-05-07T12:16:12;4.20;;;1.70;;
23115;SDS011;11727;52.134;5.052;2023-05-07T12:18:39;2.47;;;1.45;;
23115;SDS011;11727;52.134;5.052;2023-05-07T12:21:05;4.57;;;1.50;;
23115;SDS011;11727;52.134;5.052;2023-05-07T12:23:32;5.10;;;1.27;;
23115;SDS011;11727;52.134;5.052;2023-05-07T12:26:02;4.05;;;1.17;;
23115;SDS011;11727;52.134;5.052;2023-05-07T12:28:28;6.25;;;1.40;;
23115;SDS011;11727;52.134;5.052;2023-05-07T12:30:53;1.90;;;1.10;;
23115;SDS011;11727;52.134;5.052;2023-05-07T12:33:23;5.72;;;2.13;;
23115;SDS011;11727;52.134;5.052;2023-05-07T12:35:50;3.20;;;1.80;;
23115;SDS011;11727;52.134;5.052;2023-05-07T12:38:17;6.18;;;1.60;;
23115;SDS011;11727;52.134;5.052;2023-05-07T12:40:47;3.85;;;1.65;;
23115;SDS011;11727;52.134;5.052;2023-05-07T12:45:48;3.97;;;2.10;;
23115;SDS011;11727;52.134;5.052;2023-05-07T12:48:15;3.20;;;1.50;;
23115;SDS011;11727;52.134;5.052;2023-05-07T12:50:41;6.18;;;2.13;;
23115;SDS011;11727;52.134;5.052;2023-05-07T12:53:08;5.65;;;1.85;;
23115;SDS011;11727;52.134;5.052;2023-05-07T12:56:09;4.60;;;1.90;;
23115;SDS011;11727;52.134;5.052;2023-05-07T12:58:30;4.25;;;2.40;;
23115;SDS011;11727;52.134;5.052;2023-05-07T13:01:00;4.95;;;2.50;;
23115;SDS011;11727;52.134;5.052;2023-05-07T13:03:30;4.28;;;1.98;;
23115;SDS011;11727;52.134;5.052;2023-05-07T13:06:02;3.55;;;2.08;;
23115;SDS011;11727;52.134;5.052;2023-05-07T13:10:59;2.67;;;1.95;;
23115;SDS011;11727;52.134;5.052;2023-05-07T13:13:32;4.00;;;1.83;;
23115;SDS011;11727;52.134;5.052;2023-05-07T13:15:58;3.55;;;1.83;;
23115;SDS011;11727;52.134;5.052;2023-05-07T13:18:25;7.45;;;2.92;;
23115;SDS011;11727;52.134;5.052;2023-05-07T13:20:51;7.15;;;2.28;;
23115;SDS011;11727;52.134;5.052;2023-05-07T13:23:17;3.55;;;2.42;;
23115;SDS011;11727;52.134;5.052;2023-05-07T13:25:43;3.30;;;2.10;;
23115;SDS011;11727;52.134;5.052;2023-05-07T13:28:09;4.45;;;2.22;;
23115;SDS011;11727;52.134;5.052;2023-05-07T13:30:34;4.78;;;2.03;;
23115;SDS011;11727;52.134;5.052;2023-05-07T13:33:00;4.57;;;2.33;;
23115;SDS011;11727;52.134;5.052;2023-05-07T13:35:26;4.50;;;2.22;;
23115;SDS011;11727;52.134;5.052;2023-05-07T13:37:52;3.35;;;1.85;;
23115;SDS011;11727;52.134;5.052;2023-05-07T13:40:18;5.38;;;2.53;;
23115;SDS011;11727;52.134;5.052;2023-05-07T13:42:44;4.25;;;1.98;;
23115;SDS011;11727;52.134;5.052;2023-05-07T13:45:10;5.75;;;2.40;;
23115;SDS011;11727;52.134;5.052;2023-05-07T13:47:35;4.28;;;2.15;;
23115;SDS011;11727;52.134;5.052;2023-05-07T13:50:01;3.80;;;2.58;;
23115;SDS011;11727;52.134;5.052;2023-05-07T13:52:27;6.20;;;3.30;;
23115;SDS011;11727;52.134;5.052;2023-05-07T13:54:52;7.35;;;3.05;;
23115;SDS011;11727;52.134;5.052;2023-05-07T13:57:18;8.18;;;2.35;;
23115;SDS011;11727;52.134;5.052;2023-05-07T13:59:44;4.03;;;2.03;;
23115;SDS011;11727;52.134;5.052;2023-05-07T14:02:11;5.20;;;2.58;;
23115;SDS011;11727;52.134;5.052;2023-05-07T14:04:37;5.20;;;2.63;;
23115;SDS011;11727;52.134;5.052;2023-05-07T14:07:03;6.88;;;2.85;;
23115;SDS011;11727;52.134;5.052;2023-05-07T14:09:29;3.85;;;2.30;;
23115;SDS011;11727;52.134;5.052;2023-05-07T14:11:54;5.55;;;2.85;;
23115;SDS011;11727;52.134;5.052;2023-05-07T14:14:20;5.63;;;2.70;;
23115;SDS011;11727;52.134;5.052;2023-05-07T14:16:46;3.95;;;2.45;;
23115;SDS011;11727;52.134;5.052;2023-05-07T14:19:11;3.85;;;1.77;;
23115;SDS011;11727;52.134;5.052;2023-05-07T14:21:37;5.35;;;2.45;;
23115;SDS011;11727;52.134;5.052;2023-05-07T14:24:03;6.63;;;2.28;;
23115;SDS011;11727;52.134;5.052;2023-05-07T14:26:32;5.38;;;2.28;;
23115;SDS011;11727;52.134;5.052;2023-05-07T14:28:58;10.68;;;4.22;;
23115;SDS011;11727;52.134;5.052;2023-05-07T14:31:24;11.18;;;5.40;;
23115;SDS011;11727;52.134;5.052;2023-05-07T14:33:49;8.75;;;5.13;;
23115;SDS011;11727;52.134;5.052;2023-05-07T14:36:16;11.07;;;3.95;;
23115;SDS011;11727;52.134;5.052;2023-05-07T14:38:42;10.40;;;6.20;;
23115;SDS011;11727;52.134;5.052;2023-05-07T14:41:08;10.77;;;5.32;;
23115;SDS011;11727;52.134;5.052;2023-05-07T14:43:34;16.50;;;5.90;;
23115;SDS011;11727;52.134;5.052;2023-05-07T14:45:59;8.77;;;4.20;;
23115;SDS011;11727;52.134;5.052;2023-05-07T14:48:25;6.28;;;3.08;;
23115;SDS011;11727;52.134;5.052;2023-05-07T14:50:50;5.50;;;2.75;;
23115;SDS011;11727;52.134;5.052;2023-05-07T14:53:16;4.57;;;1.90;;
23115;SDS011;11727;52.134;5.052;2023-05-07T14:55:41;4.07;;;1.90;;
23115;SDS011;11727;52.134;5.052;2023-05-07T14:58:07;3.72;;;1.30;;
23115;SDS011;11727;52.134;5.052;2023-05-07T15:00:33;2.67;;;1.40;;
23115;SDS011;11727;52.134;5.052;2023-05-07T15:03:03;2.97;;;1.77;;
23115;SDS011;11727;52.134;5.052;2023-05-07T15:05:31;4.45;;;2.35;;
23115;SDS011;11727;52.134;5.052;2023-05-07T15:07:57;6.38;;;2.53;;
23115;SDS011;11727;52.134;5.052;2023-05-07T15:10:22;5.50;;;3.13;;
23115;SDS011;11727;52.134;5.052;2023-05-07T15:12:48;8.48;;;3.70;;
23115;SDS011;11727;52.134;5.052;2023-05-07T15:15:14;8.85;;;3.45;;
23115;SDS011;11727;52.134;5.052;2023-05-07T15:17:40;8.02;;;3.25;;
23115;SDS011;11727;52.134;5.052;2023-05-07T15:20:06;9.25;;;4.47;;
23115;SDS011;11727;52.134;5.052;2023-05-07T15:22:32;9.90;;;4.75;;
23115;SDS011;11727;52.134;5.052;2023-05-07T15:24:57;9.05;;;5.18;;
23115;SDS011;11727;52.134;5.052;2023-05-07T15:27:23;13.00;;;6.00;;
23115;SDS011;11727;52.134;5.052;2023-05-07T15:29:49;10.13;;;5.43;;
23115;SDS011;11727;52.134;5.052;2023-05-07T15:32:15;11.10;;;6.43;;
23115;SDS011;11727;52.134;5.052;2023-05-07T15:34:41;12.50;;;6.50;;
23115;SDS011;11727;52.134;5.052;2023-05-07T15:37:07;11.75;;;7.22;;
23115;SDS011;11727;52.134;5.052;2023-05-07T15:39:32;9.23;;;6.22;;
23115;SDS011;11727;52.134;5.052;2023-05-07T15:41:58;8.63;;;4.90;;
23115;SDS011;11727;52.134;5.052;2023-05-07T15:44:24;8.00;;;4.82;;
23115;SDS011;11727;52.134;5.052;2023-05-07T15:46:53;12.65;;;5.03;;
23115;SDS011;11727;52.134;5.052;2023-05-07T15:49:19;4.90;;;3.22;;
23115;SDS011;11727;52.134;5.052;2023-05-07T15:51:45;4.45;;;2.92;;
23115;SDS011;11727;52.134;5.052;2023-05-07T15:54:11;4.10;;;2.40;;
23115;SDS011;11727;52.134;5.052;2023-05-07T15:56:36;5.60;;;2.70;;
23115;SDS011;11727;52.134;5.052;2023-05-07T15:59:02;3.15;;;1.90;;
23115;SDS011;11727;52.134;5.052;2023-05-07T16:01:28;3.67;;;2.15;;
23115;SDS011;11727;52.134;5.052;2023-05-07T16:03:53;4.13;;;1.98;;
23115;SDS011;11727;52.134;5.052;2023-05-07T16:06:20;4.95;;;1.77;;
23115;SDS011;11727;52.134;5.052;2023-05-07T16:08:45;5.68;;;2.15;;
23115;SDS011;11727;52.134;5.052;2023-05-07T16:11:11;3.17;;;2.15;;
23115;SDS011;11727;52.134;5.052;2023-05-07T16:13:37;5.50;;;2.42;;
23115;SDS011;11727;52.134;5.052;2023-05-07T16:16:04;4.10;;;2.10;;
23115;SDS011;11727;52.134;5.052;2023-05-07T16:18:31;2.83;;;1.90;;
23115;SDS011;11727;52.134;5.052;2023-05-07T16:20:59;2.72;;;2.13;;
23115;SDS011;11727;52.134;5.052;2023-05-07T16:23:25;2.78;;;1.77;;
23115;SDS011;11727;52.134;5.052;2023-05-07T16:25:52;3.90;;;1.90;;
23115;SDS011;11727;52.134;5.052;2023-05-07T16:28:17;2.42;;;1.70;;
23115;SDS011;11727;52.134;5.052;2023-05-07T16:30:43;2.50;;;1.60;;
23115;SDS011;11727;52.134;5.052;2023-05-07T16:33:09;4.13;;;1.60;;
23115;SDS011;11727;52.134;5.052;2023-05-07T16:35:34;3.30;;;1.52;;
23115;SDS011;11727;52.134;5.052;2023-05-07T16:38:00;2.95;;;1.70;;
23115;SDS011;11727;52.134;5.052;2023-05-07T16:40:25;4.25;;;1.38;;
23115;SDS011;11727;52.134;5.052;2023-05-07T16:42:52;4.90;;;1.38;;
23115;SDS011;11727;52.134;5.052;2023-05-07T16:45:17;2.38;;;1.10;;
23115;SDS011;11727;52.134;5.052;2023-05-07T16:47:43;1.65;;;0.93;;
23115;SDS011;11727;52.134;5.052;2023-05-07T16:50:09;1.45;;;1.15;;
23115;SDS011;11727;52.134;5.052;2023-05-07T16:52:35;2.72;;;0.90;;
23115;SDS011;11727;52.134;5.052;2023-05-07T16:55:01;2.78;;;1.13;;
23115;SDS011;11727;52.134;5.052;2023-05-07T16:57:27;3.05;;;0.98;;